地図

経路データ

SID SEASON NUMBER BASIN SUBBASIN NAME ISO_TIME NATURE LAT LON WMO_WIND WMO_PRES WMO_AGENCY TRACK_TYPE DIST2LAND LANDFALL IFLAG USA_AGENCY USA_ATCF_ID USA_LAT USA_LON USA_RECORD USA_STATUS USA_WIND USA_PRES USA_SSHS USA_R34_NE USA_R34_SE USA_R34_SW USA_R34_NW USA_R50_NE USA_R50_SE USA_R50_SW USA_R50_NW USA_R64_NE USA_R64_SE USA_R64_SW USA_R64_NW USA_POCI USA_ROCI USA_RMW USA_EYE TOKYO_LAT TOKYO_LON TOKYO_GRADE TOKYO_WIND TOKYO_PRES TOKYO_R50_DIR TOKYO_R50_LONG TOKYO_R50_SHORT TOKYO_R30_DIR TOKYO_R30_LONG TOKYO_R30_SHORT TOKYO_LAND CMA_LAT CMA_LON CMA_CAT CMA_WIND CMA_PRES HKO_LAT HKO_LON HKO_CAT HKO_WIND HKO_PRES NEWDELHI_LAT NEWDELHI_LON NEWDELHI_GRADE NEWDELHI_WIND NEWDELHI_PRES NEWDELHI_CI NEWDELHI_DP NEWDELHI_POCI REUNION_LAT REUNION_LON REUNION_TYPE REUNION_WIND REUNION_PRES REUNION_TNUM REUNION_CI REUNION_RMW REUNION_R34_NE REUNION_R34_SE REUNION_R34_SW REUNION_R34_NW REUNION_R50_NE REUNION_R50_SE REUNION_R50_SW REUNION_R50_NW REUNION_R64_NE REUNION_R64_SE REUNION_R64_SW REUNION_R64_NW BOM_LAT BOM_LON BOM_TYPE BOM_WIND BOM_PRES BOM_TNUM BOM_CI BOM_RMW BOM_R34_NE BOM_R34_SE BOM_R34_SW BOM_R34_NW BOM_R50_NE BOM_R50_SE BOM_R50_SW BOM_R50_NW BOM_R64_NE BOM_R64_SE BOM_R64_SW BOM_R64_NW BOM_ROCI BOM_POCI BOM_EYE BOM_POS_METHOD BOM_PRES_METHOD NADI_LAT NADI_LON NADI_CAT NADI_WIND NADI_PRES WELLINGTON_LAT WELLINGTON_LON WELLINGTON_WIND WELLINGTON_PRES DS824_LAT DS824_LON DS824_STAGE DS824_WIND DS824_PRES TD9636_LAT TD9636_LON TD9636_STAGE TD9636_WIND TD9636_PRES TD9635_LAT TD9635_LON TD9635_WIND TD9635_PRES TD9635_ROCI NEUMANN_LAT NEUMANN_LON NEUMANN_CLASS NEUMANN_WIND NEUMANN_PRES MLC_LAT MLC_LON MLC_CLASS MLC_WIND MLC_PRES USA_GUST BOM_GUST BOM_GUST_PER REUNION_GUST REUNION_GUST_PER USA_SEAHGT USA_SEARAD_NE USA_SEARAD_SE USA_SEARAD_SW USA_SEARAD_NW STORM_SPEED STORM_DIR
1890294N17090 1890 37 NI BB NOT_NAMED 1890-10-21 00:00:00 TS 17.0000 90.3000 main 423 401 _________O____ -1 17.0000 90.3000 TC 34 8 0
1890294N17090 1890 37 NI BB NOT_NAMED 1890-10-21 03:00:00 TS 17.3983 90.3066 main 401 367 _________PO___ -1 17.5975 90.3099 TC 36 17.0000 90.3000 2 10 360
1890294N17090 1890 37 NI BB NOT_NAMED 1890-10-21 06:00:00 TS 17.9569 90.2906 main 359 322 _________OP___ -1 18.2000 90.3000 TC 39 17.5923 90.2766 2 12 357
1890294N17090 1890 37 NI BB NOT_NAMED 1890-10-21 09:00:00 TS 18.5419 90.2554 main 322 291 _________PP___ -1 18.8075 90.2576 TC 42 18.1877 90.2525 2 11 356
1890294N17090 1890 37 NI BB NOT_NAMED 1890-10-21 12:00:00 TS 19.0946 90.2136 main 291 246 _________OP___ -1 19.4000 90.2000 TC 45 18.7892 90.2272 2 11 356
1890294N17090 1890 37 NI BB NOT_NAMED 1890-10-21 15:00:00 TS 19.6787 90.1713 main 234 178 _________PO___ -1 19.9575 90.1425 TC 41 19.4000 90.2000 3 12 357
1890294N17090 1890 37 NI BB NOT_NAMED 1890-10-21 18:00:00 TS 20.2585 90.1355 main 167 111 _________OP___ -1 20.5000 90.1000 TC 37 20.0171 90.1710 3 12 357
1890294N17090 1890 37 NI BB NOT_NAMED 1890-10-21 21:00:00 TS 20.8537 90.1175 main 100 44 _________PP___ -1 21.0950 90.0924 TC 33 20.6124 90.1426 3 11 0
1890294N17090 1890 37 NI BB NOT_NAMED 1890-10-22 00:00:00 TS 21.3757 90.1090 main 44 11 _________OP___ -1 21.6000 90.1000 TC 30 21.1515 90.1179 3 9 359
1890294N17090 1890 37 NI BB NOT_NAMED 1890-10-22 03:00:00 TS 21.7512 90.1000 main 0 0 _________PO___ -1 21.9025 90.1000 TC 30 21.6000 90.1000 1 6 359
1890294N17090 1890 37 NI BB NOT_NAMED 1890-10-22 06:00:00 TS 22.0112 90.0964 main 0 0 _________OP___ -1 22.1000 90.1000 TC 30 21.9224 90.0927 1 5 358
1890294N17090 1890 37 NI BB NOT_NAMED 1890-10-22 09:00:00 TS 22.2275 90.0962 main 0 0 _________PP___ -1 22.3000 90.1000 TC 30 22.1549 90.0924 1 4 0
1890294N17090 1890 37 NI BB NOT_NAMED 1890-10-22 12:00:00 TS 22.4175 90.0979 main 0 0 _________OP___ -1 22.5000 90.1000 TC 30 22.3349 90.0959 1 4 2
1890294N17090 1890 37 NI BB NOT_NAMED 1890-10-22 15:00:00 TS 22.6287 90.1000 main 0 0 _________PO___ -1 22.7575 90.1000 TC 31 22.5000 90.1000 1 4 0
1890294N17090 1890 37 NI BB NOT_NAMED 1890-10-22 18:00:00 TS 22.8617 90.1000 main 0 0 _________OP___ -1 23.0000 90.1000 TC 32 22.7234 90.1000 1 4 0
1890294N17090 1890 37 NI BB NOT_NAMED 1890-10-22 21:00:00 TS 23.0550 90.1000 main 0 0 _________PP___ -1 23.1725 90.1000 TC 33 22.9375 90.1000 1 4 0
1890294N17090 1890 37 NI BB NOT_NAMED 1890-10-23 00:00:00 TS 23.2164 90.1000 main 0 0 _________OP___ -1 23.3000 90.1000 TC 34 23.1328 90.1000 1 3 0
1890294N17090 1890 37 NI BB NOT_NAMED 1890-10-23 03:00:00 TS 23.3537 90.1000 main 0 0 _________PO___ -1 23.4075 90.1000 TC 36 23.3000 90.1000 2 2 6
1890294N17090 1890 37 NI BB NOT_NAMED 1890-10-23 06:00:00 TS 23.4623 90.1000 main 0 0 _________OP___ -1 23.5000 90.1000 TC 39 23.4247 90.1000 2 2 8
1890294N17090 1890 37 NI BB NOT_NAMED 1890-10-23 09:00:00 TS 23.5612 90.1000 main 0 0 _________PP___ -1 23.6000 90.1000 TC 42 23.5225 90.1000 2 2 7
1890294N17090 1890 37 NI BB NOT_NAMED 1890-10-23 12:00:00 TS 23.6545 90.1000 main 0 0 _________OP___ -1 23.7000 90.1000 TC 45 23.6091 90.1000 2 2 4
1890294N17090 1890 37 NI BB NOT_NAMED 1890-10-23 15:00:00 TS 23.7463 90.1000 main 0 0 _________PO___ -1 23.7925 90.1000 TC 45 23.7000 90.1000 3 2 6
1890294N17090 1890 37 NI BB NOT_NAMED 1890-10-23 18:00:00 TS 23.8471 90.1000 main 0 0 _________OP___ -1 23.9000 90.1000 TC 45 23.8075 90.1000 3 2 0
1890294N17090 1890 37 NI BB NOT_NAMED 1890-10-23 21:00:00 TS 23.9740 90.1000 main 0 0 _________PP___ -1 24.0400 90.1000 TC 45 23.9300 90.1000 3 3 6
1890294N17090 1890 37 NI BB NOT_NAMED 1890-10-24 00:00:00 TS 24.1083 90.1000 main 0 0 _________OP___ -1 24.2000 90.1000 TC 45 24.0625 90.1000 3 2 6
1890294N17090 1890 37 NI BB NOT_NAMED 1890-10-24 03:00:00 NR 24.2000 90.1000 main 0 __________O___ -1 TC 24.2000 90.1000 3 2 0

IBTrACS Databaseについて

本データベースは、米国NOAAが公開する1842年以降の世界の熱帯低気圧のベストトラックデータアーカイブInternational Best Track Archive for Climate Stewardship (IBTrACS)を、ウェブで閲覧しやすい形式に変換したものです。

最終更新日:2021-10-08